createdAt,value
2019-03-25T00:00:56.974Z,22.2
2019-03-25T00:04:02.851Z,22.2
2019-03-25T00:07:08.893Z,22.2
2019-03-25T00:10:14.874Z,22.2
2019-03-25T00:13:20.847Z,22.2
2019-03-25T00:16:26.799Z,22.2
2019-03-25T00:19:32.728Z,22.2
2019-03-25T00:22:38.760Z,22.2
2019-03-25T00:25:44.800Z,22.1
2019-03-25T00:28:50.797Z,22.2
2019-03-25T00:31:56.790Z,22.1
2019-03-25T00:35:02.699Z,22.1
2019-03-25T00:38:11.156Z,22.1
2019-03-25T00:41:17.220Z,22.1
2019-03-25T00:44:23.194Z,22.1
2019-03-25T00:47:29.112Z,22.1
2019-03-25T00:50:35.089Z,22.1
2019-03-25T00:53:41.039Z,22.1
2019-03-25T00:56:46.938Z,22.1
2019-03-25T00:59:52.898Z,22.1
2019-03-25T01:02:58.810Z,22.1
2019-03-25T01:06:04.833Z,22
2019-03-25T01:09:10.831Z,22
2019-03-25T01:12:16.788Z,22
2019-03-25T01:15:22.699Z,22
2019-03-25T01:18:29.697Z,22
2019-03-25T01:21:35.751Z,22
2019-03-25T01:24:41.760Z,22
2019-03-25T01:27:47.661Z,22
2019-03-25T01:30:53.693Z,22
2019-03-25T01:33:59.633Z,22
2019-03-25T01:37:05.641Z,22
2019-03-25T01:40:11.507Z,22
2019-03-25T01:43:17.453Z,22
2019-03-25T01:46:23.373Z,22
2019-03-25T01:49:29.373Z,22
2019-03-25T01:52:35.303Z,22
2019-03-25T01:55:41.310Z,22
2019-03-25T01:58:47.243Z,22
2019-03-25T02:01:53.186Z,22
2019-03-25T02:04:59.081Z,22
2019-03-25T02:08:05.197Z,22
2019-03-25T02:11:11.135Z,22
2019-03-25T02:14:17.057Z,22
2019-03-25T02:17:22.976Z,22
2019-03-25T02:20:28.943Z,22
2019-03-25T02:23:34.859Z,22
2019-03-25T02:26:40.859Z,22
2019-03-25T02:29:46.812Z,22
2019-03-25T02:32:52.772Z,22
2019-03-25T02:35:58.643Z,22.1
2019-03-25T02:39:04.579Z,22.1
2019-03-25T02:42:10.648Z,22.1
2019-03-25T02:45:16.657Z,22.1
2019-03-25T02:48:22.569Z,22.1
2019-03-25T02:51:28.528Z,22.1
2019-03-25T02:54:34.502Z,22.1
2019-03-25T02:57:40.615Z,22.1
2019-03-25T03:00:46.758Z,22.1
2019-03-25T03:03:52.937Z,22.1
2019-03-25T03:06:58.913Z,22.1
2019-03-25T03:10:04.919Z,22.1
2019-03-25T03:13:10.992Z,22.1
2019-03-25T03:16:16.886Z,22.1
2019-03-25T03:19:22.948Z,22.1
2019-03-25T03:22:28.920Z,22.1
2019-03-25T03:25:35.015Z,22.1
2019-03-25T03:28:56.854Z,22.1
2019-03-25T03:32:02.939Z,22.1
2019-03-25T03:35:09.201Z,22.1
2019-03-25T03:38:15.426Z,22.2
2019-03-25T03:41:21.502Z,22.2
2019-03-25T03:44:27.447Z,22.1
2019-03-25T03:47:33.332Z,22.2
2019-03-25T03:50:39.257Z,22.2
2019-03-25T03:53:45.245Z,22.3
2019-03-25T03:56:51.248Z,22.3
2019-03-25T03:59:57.096Z,22.4
2019-03-25T04:03:03.342Z,22.4
2019-03-25T04:06:09.354Z,22.5
2019-03-25T04:09:15.342Z,22.5
2019-03-25T04:12:21.291Z,22.6
2019-03-25T04:15:27.279Z,22.6
2019-03-25T04:18:33.442Z,22.7
2019-03-25T04:21:39.346Z,22.7
2019-03-25T04:24:45.259Z,22.8
2019-03-25T04:27:51.248Z,22.8
2019-03-25T04:30:57.174Z,22.8
2019-03-25T04:34:03.134Z,22.9
2019-03-25T04:37:09.137Z,22.9
2019-03-25T04:40:15.121Z,23
2019-03-25T04:43:21.176Z,23
2019-03-25T04:46:27.283Z,23.1
2019-03-25T04:49:33.250Z,23.3
2019-03-25T04:52:39.180Z,23.3
2019-03-25T04:55:45.189Z,23.4
2019-03-25T04:58:51.120Z,23.5
2019-03-25T05:01:57.132Z,23.5
2019-03-25T05:05:03.195Z,23.6
2019-03-25T05:08:09.137Z,23.6
2019-03-25T05:11:17.921Z,23.7
2019-03-25T05:14:35.961Z,23.9
2019-03-25T05:17:41.946Z,24
2019-03-25T05:20:47.881Z,24.1
2019-03-25T05:23:53.848Z,24.2
2019-03-25T05:26:59.755Z,24.3
2019-03-25T05:30:05.806Z,24.3
2019-03-25T05:33:11.670Z,24.3
2019-03-25T05:36:17.599Z,24.4
2019-03-25T05:39:23.575Z,24.5
2019-03-25T05:42:29.480Z,24.5
2019-03-25T05:45:35.612Z,24.5
2019-03-25T05:48:41.528Z,24.6
2019-03-25T05:51:47.486Z,24.6
2019-03-25T05:54:53.508Z,24.6
2019-03-25T05:57:59.361Z,24.6
2019-03-25T06:01:05.464Z,24.6
2019-03-25T06:04:11.457Z,24.6
2019-03-25T06:07:17.499Z,24.6
2019-03-25T06:10:25.997Z,24.7
2019-03-25T06:13:31.923Z,24.7
2019-03-25T06:16:40.898Z,24.7
2019-03-25T06:19:47.761Z,24.7
2019-03-25T06:22:53.678Z,24.8
2019-03-25T06:26:00.637Z,24.8
2019-03-25T06:29:06.597Z,24.8
2019-03-25T06:32:12.549Z,24.9
2019-03-25T06:35:18.524Z,24.9
2019-03-25T06:38:24.479Z,24.9
2019-03-25T06:41:30.536Z,24.9
2019-03-25T06:44:36.452Z,25
2019-03-25T06:47:42.570Z,25
2019-03-25T06:50:48.512Z,25
2019-03-25T06:53:57.354Z,25.1
2019-03-25T06:57:03.312Z,25.1
2019-03-25T07:00:09.438Z,25.1
2019-03-25T07:03:15.529Z,25.1
2019-03-25T07:06:24.222Z,25.2
2019-03-25T07:09:30.404Z,25.2
2019-03-25T07:12:36.343Z,25.2
2019-03-25T07:15:44.270Z,25.2
2019-03-25T07:18:50.534Z,25.3
2019-03-25T07:21:56.528Z,25.3
2019-03-25T07:25:05.173Z,25.3
2019-03-25T07:28:11.188Z,25.4
2019-03-25T07:31:17.252Z,25.4
2019-03-25T07:34:23.459Z,25.4
2019-03-25T07:37:29.419Z,25.5
2019-03-25T07:40:35.574Z,25.5
2019-03-25T07:43:41.496Z,25.5
2019-03-25T07:46:48.610Z,25.6
2019-03-25T07:49:54.497Z,25.6
2019-03-25T07:53:00.550Z,25.7
2019-03-25T07:56:06.566Z,25.7
2019-03-25T07:59:12.661Z,25.7
2019-03-25T08:02:23.232Z,25.8
2019-03-25T08:05:29.437Z,25.8
2019-03-25T08:08:35.496Z,25.8
2019-03-25T08:11:41.593Z,25.8
2019-03-25T08:14:47.664Z,25.8
2019-03-25T08:17:53.778Z,25.8
2019-03-25T08:20:59.772Z,25.8
2019-03-25T08:24:05.794Z,25.9
2019-03-25T08:27:11.773Z,25.9
2019-03-25T08:30:20.733Z,25.9
2019-03-25T08:33:26.845Z,25.9
2019-03-25T08:36:32.961Z,25.9
2019-03-25T08:39:38.950Z,26
2019-03-25T08:42:44.946Z,25.9
2019-03-25T08:45:52.023Z,26
2019-03-25T08:48:58.088Z,26
2019-03-25T08:52:04.081Z,26
2019-03-25T08:55:10.256Z,26
2019-03-25T08:58:16.327Z,25.9
2019-03-25T09:01:22.233Z,25.9
2019-03-25T09:04:28.244Z,25.9
2019-03-25T09:07:34.141Z,25.9
2019-03-25T09:10:40.157Z,25.9
2019-03-25T09:13:46.354Z,25.8
2019-03-25T09:16:52.387Z,25.9
2019-03-25T09:20:01.758Z,25.8
2019-03-25T09:23:10.366Z,25.8
2019-03-25T09:26:16.542Z,25.8
2019-03-25T09:29:22.521Z,25.8
2019-03-25T09:32:28.437Z,25.8
2019-03-25T09:35:34.392Z,25.8
2019-03-25T09:38:40.413Z,25.8
2019-03-25T09:41:46.444Z,25.7
2019-03-25T09:44:52.433Z,25.8
2019-03-25T09:47:58.367Z,25.8
2019-03-25T09:51:04.384Z,25.7
2019-03-25T09:54:10.347Z,25.7
2019-03-25T09:57:16.483Z,25.7
2019-03-25T10:00:24.949Z,25.7
2019-03-25T10:03:31.200Z,25.7
2019-03-25T10:06:37.109Z,25.7
2019-03-25T10:09:43.075Z,25.6
2019-03-25T10:12:49.050Z,25.6
2019-03-25T10:15:57.496Z,25.6
2019-03-25T10:19:03.582Z,25.6
2019-03-25T10:22:11.973Z,25.6
2019-03-25T10:25:18.035Z,25.6
2019-03-25T10:28:23.951Z,25.6
2019-03-25T10:31:29.909Z,25.6
2019-03-25T10:34:35.889Z,25.6
2019-03-25T10:37:41.925Z,25.6
2019-03-25T10:40:47.792Z,25.5
2019-03-25T10:43:53.709Z,25.6
2019-03-25T10:46:59.767Z,25.5
2019-03-25T10:50:07.090Z,25.5
2019-03-25T10:53:13.059Z,25.5
2019-03-25T10:56:19.047Z,25.5
2019-03-25T10:59:25.145Z,25.5
2019-03-25T11:02:33.486Z,25.5
2019-03-25T11:05:39.664Z,25.5
2019-03-25T11:08:45.660Z,25.5
2019-03-25T11:11:51.666Z,25.5
2019-03-25T11:14:57.628Z,25.5
2019-03-25T11:18:05.692Z,25.5
2019-03-25T11:21:11.809Z,25.5
2019-03-25T11:24:17.734Z,25.5
2019-03-25T11:27:23.689Z,25.5
2019-03-25T11:33:33.902Z,25.5
2019-03-25T11:36:40.112Z,25.5
2019-03-25T11:39:49.357Z,25.5
2019-03-25T11:42:55.416Z,25.5
2019-03-25T11:46:01.379Z,25.5
2019-03-25T11:49:07.325Z,25.5
2019-03-25T11:52:16.084Z,25.4
2019-03-25T11:55:22.038Z,25.5
2019-03-25T11:58:28.010Z,25.5
2019-03-25T12:01:35.170Z,25.5
2019-03-25T12:04:41.190Z,25.5
2019-03-25T12:07:47.111Z,25.5
2019-03-25T12:10:53.209Z,25.5
2019-03-25T12:13:59.086Z,25.5
2019-03-25T12:17:05.082Z,25.5
2019-03-25T12:20:11.159Z,25.5
2019-03-25T12:23:25.896Z,25.5
2019-03-25T12:26:32.432Z,25.5
2019-03-25T12:29:38.344Z,25.5
2019-03-25T12:32:45.233Z,25.5
2019-03-25T12:35:51.426Z,25.5
2019-03-25T12:38:57.328Z,25.5
2019-03-25T12:42:04.233Z,25.5
2019-03-25T12:45:10.325Z,25.5
2019-03-25T12:48:19.365Z,25.5
2019-03-25T12:51:25.440Z,25.5
2019-03-25T12:54:31.577Z,25.5
2019-03-25T12:57:37.555Z,25.5
2019-03-25T13:00:43.439Z,25.5
2019-03-25T13:03:49.390Z,25.5
2019-03-25T13:06:55.302Z,25.5
2019-03-25T13:10:01.231Z,25.5
2019-03-25T13:13:07.348Z,25.5
2019-03-25T13:16:13.311Z,25.5
2019-03-25T13:19:19.195Z,25.5
2019-03-25T13:22:26.175Z,25.4
2019-03-25T13:25:32.176Z,25.5
2019-03-25T13:28:40.758Z,25.5
2019-03-25T13:31:46.663Z,25.5
2019-03-25T13:34:52.694Z,25.4
2019-03-25T13:37:59.036Z,25.5
2019-03-25T13:41:05.215Z,25.5
2019-03-25T13:44:13.231Z,25.5
2019-03-25T13:47:19.187Z,25.5
2019-03-25T13:50:25.204Z,25.5
2019-03-25T13:53:31.110Z,25.5
2019-03-25T13:56:37.161Z,25.5
2019-03-25T13:59:43.308Z,25.5
2019-03-25T14:02:49.619Z,25.5
2019-03-25T14:05:55.937Z,25.4
2019-03-25T14:09:01.826Z,25.5
2019-03-25T14:12:08.314Z,25.5
2019-03-25T14:15:14.304Z,25.5
2019-03-25T14:18:20.380Z,25.4
2019-03-25T14:21:26.439Z,25.4
2019-03-25T14:24:32.421Z,25.4
2019-03-25T14:27:38.420Z,25.5
2019-03-25T14:30:44.536Z,25.5
2019-03-25T14:33:51.522Z,25.5
2019-03-25T14:36:58.483Z,25.5
2019-03-25T14:40:04.552Z,25.6
2019-03-25T14:43:11.652Z,25.5
2019-03-25T14:46:17.661Z,25.5
2019-03-25T14:49:25.206Z,25.5
2019-03-25T14:52:31.123Z,25.6
2019-03-25T14:55:40.225Z,25.5
2019-03-25T14:58:47.285Z,25.5
2019-03-25T15:01:53.579Z,25.5
2019-03-25T15:04:59.768Z,25.6
2019-03-25T15:08:06.174Z,25.5
2019-03-25T15:11:12.293Z,25.6
2019-03-25T15:14:18.311Z,25.5
2019-03-25T15:17:24.344Z,25.6
2019-03-25T15:20:30.328Z,25.6
2019-03-25T15:23:39.516Z,25.6
2019-03-25T15:26:46.594Z,25.6
2019-03-25T15:29:53.076Z,25.6
2019-03-25T15:32:59.259Z,25.6
2019-03-25T15:36:05.303Z,25.6
2019-03-25T15:39:12.311Z,25.6
2019-03-25T15:42:18.244Z,25.6
2019-03-25T15:45:24.261Z,25.6
2019-03-25T15:48:31.153Z,25.6
2019-03-25T15:51:37.192Z,25.6
2019-03-25T15:54:45.823Z,25.6
2019-03-25T15:57:51.977Z,25.6
2019-03-25T16:00:58.060Z,25.6
2019-03-25T16:04:04.056Z,25.6
2019-03-25T16:07:09.967Z,25.6
2019-03-25T16:10:15.972Z,25.6
2019-03-25T16:13:22.028Z,25.6
2019-03-25T16:16:29.118Z,25.6
2019-03-25T16:19:35.072Z,25.6
2019-03-25T16:22:41.097Z,25.6
2019-03-25T16:25:49.469Z,25.6
2019-03-25T16:28:55.485Z,25.6
2019-03-25T16:32:01.473Z,25.6
2019-03-25T16:35:07.434Z,25.5
2019-03-25T16:38:15.848Z,25.6
2019-03-25T16:41:21.714Z,25.6
2019-03-25T16:44:27.723Z,25.5
2019-03-25T16:47:33.717Z,25.5
2019-03-25T16:50:39.585Z,25.5
2019-03-25T16:53:45.590Z,25.6
2019-03-25T16:56:51.631Z,25.5
2019-03-25T16:59:57.654Z,25.5
2019-03-25T17:03:03.668Z,25.5
2019-03-25T17:06:09.654Z,25.5
2019-03-25T17:09:15.842Z,25.5
2019-03-25T17:12:22.007Z,25.5
2019-03-25T17:15:27.926Z,25.5
2019-03-25T17:18:33.931Z,25.5
2019-03-25T17:21:39.842Z,25.5
2019-03-25T17:24:45.842Z,25.5
2019-03-25T17:27:51.762Z,25.5
2019-03-25T17:30:57.684Z,25.4
2019-03-25T17:34:06.856Z,25.4
2019-03-25T17:37:12.977Z,25.4
2019-03-25T17:40:21.286Z,25.4
2019-03-25T17:43:28.336Z,25.4
2019-03-25T17:46:34.256Z,25.4
2019-03-25T17:49:40.239Z,25.4
2019-03-25T17:52:46.169Z,25.3
2019-03-25T17:55:52.066Z,25.3
2019-03-25T17:58:58.019Z,25.3
2019-03-25T18:02:04.031Z,25.3
2019-03-25T18:05:10.030Z,25.3
2019-03-25T18:08:15.960Z,25.3
2019-03-25T18:11:22.881Z,25.3
2019-03-25T18:14:28.991Z,25.3
2019-03-25T18:17:34.970Z,25.3
2019-03-25T18:20:40.925Z,25.3
2019-03-25T18:23:46.848Z,25.3
2019-03-25T18:26:52.833Z,25.3
2019-03-25T18:29:58.840Z,25.3
2019-03-25T18:33:05.263Z,25.3
2019-03-25T18:36:11.174Z,25.3
2019-03-25T18:39:17.107Z,25.3
2019-03-25T18:42:23.078Z,25.3
2019-03-25T18:45:29.029Z,25.3
2019-03-25T18:48:34.966Z,25.2
2019-03-25T18:51:41.011Z,25.2
2019-03-25T18:54:47.039Z,25.2
2019-03-25T18:57:53.055Z,25.2
2019-03-25T19:00:59.070Z,25.2
2019-03-25T19:04:05.073Z,25.2
2019-03-25T19:07:11.083Z,25.1
2019-03-25T19:10:17.103Z,25.2
2019-03-25T19:13:22.959Z,25.2
2019-03-25T19:16:29.079Z,25.2
2019-03-25T19:19:35.248Z,25.2
2019-03-25T19:22:41.148Z,25.2
2019-03-25T19:25:47.172Z,25.1
2019-03-25T19:28:53.343Z,25.1
2019-03-25T19:32:06.388Z,25.1
2019-03-25T19:35:12.896Z,25.1
2019-03-25T19:38:18.837Z,25.1
2019-03-25T19:41:32.015Z,25.1
2019-03-25T19:44:41.247Z,25.1
2019-03-25T19:47:47.263Z,25.1
2019-03-25T19:50:53.392Z,25.1
2019-03-25T19:53:59.438Z,25.1
2019-03-25T19:57:05.479Z,25.1
2019-03-25T20:00:11.547Z,25
2019-03-25T20:03:17.788Z,25
2019-03-25T20:06:26.740Z,25
2019-03-25T20:09:32.969Z,24.9
2019-03-25T20:12:39.157Z,24.9
2019-03-25T20:15:46.780Z,24.8
2019-03-25T20:18:52.998Z,24.8
2019-03-25T20:21:59.050Z,24.7
2019-03-25T20:25:05.240Z,24.7
2019-03-25T20:28:11.402Z,24.6
2019-03-25T20:31:17.358Z,24.6
2019-03-25T20:34:23.455Z,24.5
2019-03-25T20:37:29.665Z,24.5
2019-03-25T20:40:35.678Z,24.5
2019-03-25T20:43:41.749Z,24.4
2019-03-25T20:46:47.877Z,24.4
2019-03-25T20:49:54.139Z,24.3
2019-03-25T20:53:00.261Z,24.3
2019-03-25T20:56:06.579Z,24.3
2019-03-25T20:59:12.642Z,24.3
2019-03-25T21:02:18.775Z,24.2
2019-03-25T21:05:24.750Z,24.2
2019-03-25T21:08:30.985Z,24.1
2019-03-25T21:14:41.300Z,24.1
2019-03-25T21:17:50.565Z,24.1
2019-03-25T21:20:56.882Z,24
2019-03-25T21:24:03.093Z,24
2019-03-25T21:27:09.375Z,24
2019-03-25T21:30:15.412Z,24
2019-03-25T21:33:21.597Z,23.9
2019-03-25T21:36:27.639Z,23.9
2019-03-25T21:39:33.906Z,23.9
2019-03-25T21:42:40.151Z,23.9
2019-03-25T21:45:46.282Z,23.8
2019-03-25T21:48:52.465Z,23.8
2019-03-25T21:51:58.771Z,23.8
2019-03-25T21:55:05.160Z,23.8
2019-03-25T21:58:11.486Z,23.8
2019-03-25T22:01:17.769Z,23.8
2019-03-25T22:04:23.839Z,23.8
2019-03-25T22:07:29.944Z,23.7
2019-03-25T22:10:35.907Z,23.7
2019-03-25T22:13:44.769Z,23.6
2019-03-25T22:16:50.696Z,23.6
2019-03-25T22:19:56.662Z,23.5
2019-03-25T22:23:02.752Z,23.5
2019-03-25T22:26:08.677Z,23.5
2019-03-25T22:29:14.631Z,23.5
2019-03-25T22:32:20.561Z,23.4
2019-03-25T22:35:26.605Z,23.4
2019-03-25T22:38:32.519Z,23.4
2019-03-25T22:41:38.417Z,23.3
2019-03-25T22:44:44.478Z,23.3
2019-03-25T22:47:50.403Z,23.3
2019-03-25T22:50:56.363Z,23.3
2019-03-25T22:54:05.414Z,23.2
2019-03-25T22:57:11.306Z,23.2
2019-03-25T23:00:17.208Z,23.2
2019-03-25T23:03:23.161Z,23.1
2019-03-25T23:06:43.489Z,23.1
2019-03-25T23:09:49.450Z,23.1
2019-03-25T23:12:55.376Z,23.1
2019-03-25T23:16:01.291Z,23.1
2019-03-25T23:19:07.208Z,23.1
2019-03-25T23:22:13.115Z,23
2019-03-25T23:25:19.122Z,23
2019-03-25T23:28:25.131Z,23
2019-03-25T23:31:31.059Z,23
2019-03-25T23:34:37.007Z,23
2019-03-25T23:37:43.007Z,23
2019-03-25T23:40:48.873Z,22.9
2019-03-25T23:43:54.800Z,22.9
2019-03-25T23:47:00.737Z,22.9
2019-03-25T23:50:06.747Z,22.9
2019-03-25T23:53:12.986Z,22.9
2019-03-25T23:56:19.023Z,22.9
2019-03-25T23:59:28.237Z,22.9
